createdAt,value
2022-12-23T07:07:54.845Z,50.60
2022-12-23T07:12:56.909Z,48.28
2022-12-23T07:17:58.993Z,54.97
2022-12-23T07:23:01.131Z,57.20
2022-12-23T07:28:03.253Z,56.60
2022-12-23T07:33:05.357Z,56.03
2022-12-23T07:38:07.499Z,63.10
2022-12-23T07:43:10.168Z,48.10
2022-12-23T07:48:12.302Z,46.80
2022-12-23T07:53:14.408Z,53.13
2022-12-23T07:58:16.457Z,53.90
2022-12-23T08:03:18.679Z,54.42
2022-12-23T08:08:20.815Z,51.60
2022-12-23T08:13:22.928Z,46.90
2022-12-23T08:18:26.036Z,46.28
2022-12-23T08:23:29.856Z,51.42
2022-12-23T08:28:32.578Z,53.63
2022-12-23T08:33:36.690Z,60.50
2022-12-23T08:38:38.792Z,47.42
2022-12-23T08:43:40.972Z,51.13
2022-12-23T08:48:48.872Z,56.97
2022-12-23T08:53:59.822Z,47.40
2022-12-23T08:59:04.055Z,54.57
2022-12-23T09:04:07.386Z,49.37
2022-12-23T09:09:12.880Z,47.85
2022-12-23T09:14:15.019Z,45.12
2022-12-23T09:19:17.080Z,53.37
2022-12-23T09:24:19.123Z,50.00
2022-12-23T09:29:21.301Z,57.58
2022-12-23T09:34:23.393Z,49.40
2022-12-23T09:39:25.721Z,55.83
2022-12-23T09:44:30.574Z,57.38
2022-12-23T09:49:34.054Z,53.00
2022-12-23T09:54:46.205Z,49.90
2022-12-23T10:00:26.628Z,55.45
2022-12-23T10:05:57.936Z,44.15
2022-12-23T10:11:04.380Z,48.17
2022-12-23T10:16:16.896Z,48.67
2022-12-23T10:21:33.930Z,41.00
2022-12-23T10:26:46.810Z,42.67
2022-12-23T10:32:17.413Z,43.45
2022-12-23T10:37:30.089Z,50.40
2022-12-23T10:42:43.838Z,49.70
2022-12-23T10:47:59.764Z,46.07
2022-12-23T10:53:06.408Z,54.50
2022-12-23T10:58:18.229Z,47.17
2022-12-23T11:03:24.038Z,47.73
2022-12-23T11:08:29.260Z,48.83
2022-12-23T11:13:37.643Z,47.22
2022-12-23T11:18:56.370Z,55.93
2022-12-23T11:24:18.129Z,55.20
2022-12-23T11:29:29.304Z,60.63
2022-12-23T11:34:37.722Z,51.27
2022-12-23T11:39:46.521Z,52.53
2022-12-23T11:44:51.941Z,51.72
2022-12-23T11:49:57.181Z,54.33
2022-12-23T11:55:05.413Z,61.77
2022-12-23T12:00:19.082Z,65.85
2022-12-23T12:05:24.064Z,64.35
2022-12-23T12:10:32.815Z,59.57
2022-12-23T12:15:51.529Z,52.75
2022-12-23T12:21:01.198Z,59.53
2022-12-23T12:26:08.409Z,58.87
2022-12-23T12:31:26.048Z,56.83
2022-12-23T12:36:46.624Z,60.00
2022-12-23T12:42:05.039Z,58.33
2022-12-23T12:52:59.597Z,53.08
2022-12-23T12:58:04.747Z,54.00
2022-12-23T13:03:49.641Z,53.00
2022-12-23T13:08:52.050Z,61.03
2022-12-23T13:14:18.908Z,62.35
2022-12-23T13:19:33.358Z,68.93
2022-12-23T13:25:10.794Z,60.70
2022-12-23T13:30:17.834Z,66.50
2022-12-23T13:35:41.177Z,61.75
2022-12-23T13:41:05.854Z,64.03
2022-12-23T13:46:24.573Z,65.68
2022-12-23T13:51:37.745Z,64.65
2022-12-23T13:56:49.570Z,69.27
2022-12-23T14:01:52.672Z,59.40
2022-12-23T14:06:58.356Z,62.03
2022-12-23T14:12:22.219Z,57.33
2022-12-23T14:18:04.575Z,57.30
2022-12-23T14:23:25.629Z,62.90
2022-12-23T14:28:33.832Z,68.32
2022-12-23T14:33:37.786Z,64.97
2022-12-23T14:38:40.755Z,62.47
2022-12-23T14:43:45.773Z,58.08
2022-12-23T14:48:47.996Z,55.77
2022-12-23T14:53:53.697Z,62.60
2022-12-23T14:59:14.107Z,59.00
2022-12-23T15:04:22.082Z,61.97
2022-12-23T15:09:31.627Z,63.53
2022-12-23T15:14:50.849Z,56.92
2022-12-23T15:19:53.686Z,68.70
2022-12-23T15:24:55.817Z,59.60
2022-12-23T15:29:58.760Z,60.67
2022-12-23T15:35:06.198Z,54.38
2022-12-23T15:40:34.221Z,63.50
2022-12-23T15:45:42.069Z,58.28
2022-12-23T15:50:44.222Z,59.67
2022-12-23T15:55:48.898Z,62.37
2022-12-23T16:00:59.068Z,59.33
2022-12-23T16:06:16.936Z,53.72
2022-12-23T16:11:21.078Z,58.53
2022-12-23T16:16:34.170Z,59.03
2022-12-23T16:21:37.085Z,58.87
2022-12-23T16:26:41.859Z,58.83
2022-12-23T16:31:51.237Z,54.37
2022-12-23T16:36:57.943Z,52.60
2022-12-23T16:42:00.084Z,53.47
2022-12-23T16:47:13.339Z,58.13
2022-12-23T16:52:15.773Z,55.23
2022-12-23T16:57:17.869Z,55.67
2022-12-23T17:02:25.176Z,53.27
2022-12-23T17:07:27.626Z,55.70
2022-12-23T17:12:29.786Z,71.45
2022-12-23T17:17:32.439Z,55.40
2022-12-23T17:22:36.660Z,57.60
2022-12-23T17:27:39.586Z,52.25
2022-12-23T17:32:41.813Z,51.47
2022-12-23T17:37:43.944Z,54.67
2022-12-23T17:42:47.162Z,56.37
2022-12-23T17:47:49.449Z,53.35
2022-12-23T17:52:52.569Z,52.17
2022-12-23T17:57:55.750Z,55.20
2022-12-23T18:02:57.943Z,53.00
2022-12-23T18:08:01.525Z,56.40
2022-12-23T18:13:07.239Z,53.90
2022-12-23T18:18:20.475Z,50.47
2022-12-23T18:23:30.171Z,54.00
2022-12-23T18:28:32.368Z,48.57
2022-12-23T18:33:34.465Z,58.70
2022-12-23T18:38:36.600Z,57.67
2022-12-23T18:43:38.789Z,56.67
2022-12-23T18:48:40.932Z,61.92
2022-12-23T18:53:43.689Z,57.08
2022-12-23T18:58:45.922Z,56.87
2022-12-23T19:03:48.005Z,53.23
2022-12-23T19:08:50.079Z,57.70
2022-12-23T19:13:52.265Z,59.28
2022-12-23T19:18:54.335Z,56.57
2022-12-23T19:23:57.924Z,59.92
2022-12-23T19:29:00.355Z,72.05
2022-12-23T19:34:02.433Z,61.57
2022-12-23T19:39:04.483Z,66.18
2022-12-23T19:44:06.672Z,67.37
2022-12-23T19:49:11.628Z,68.70
2022-12-23T19:54:17.315Z,65.03
2022-12-23T19:59:20.451Z,66.12
2022-12-23T20:04:24.925Z,61.30
2022-12-23T20:09:27.097Z,64.53
2022-12-23T20:14:33.755Z,67.18
2022-12-23T20:19:43.768Z,72.62
2022-12-23T20:24:47.842Z,73.20
2022-12-23T20:29:49.936Z,69.22
2022-12-23T20:34:52.025Z,66.93
2022-12-23T20:39:54.265Z,57.83
2022-12-23T20:44:56.298Z,63.10
2022-12-23T20:49:58.420Z,64.75
2022-12-23T20:55:01.700Z,64.62
2022-12-23T21:00:05.673Z,61.13
2022-12-23T21:05:08.146Z,62.47
2022-12-23T21:10:10.499Z,72.28
2022-12-23T21:15:12.603Z,62.73
2022-12-23T21:20:14.900Z,57.67
2022-12-23T21:25:17.172Z,60.63
2022-12-23T21:30:19.429Z,57.40
2022-12-23T21:35:21.545Z,57.87
2022-12-23T21:40:23.683Z,61.75
2022-12-23T21:45:25.741Z,60.28
2022-12-23T21:50:27.820Z,50.80
2022-12-23T21:55:29.992Z,50.12
2022-12-23T22:00:32.162Z,48.70
2022-12-23T22:05:34.264Z,47.03
2022-12-23T22:10:39.251Z,54.25
